Time;durP1;ratioP1;P1;durP2;ratioP2;P2;SDS_P1;SDS_P2;PMS_P1;PMS_P2;Temp;Humidity;BMP_temperature;BMP_pressure;BME280_temperature;BME280_humidity;BME280_pressure;Samples;Min_cycle;Max_cycle;Signal;HPM_P1;HPM_P2
2023/05/27 00:01:39;;;;;;;11.70;6.30;;;22.70;43.40;;;;;;4992733;28;20503;-78
2023/05/27 00:04:08;;;;;;;13.07;6.50;;;22.60;43.40;;;;;;4991526;28;20513;-77
2023/05/27 00:06:37;;;;;;;12.87;6.33;;;22.60;43.40;;;;;;4992775;28;20437;-78
2023/05/27 00:09:05;;;;;;;11.43;5.80;;;22.60;43.50;;;;;;4984966;28;20437;-78
2023/05/27 00:11:32;;;;;;;15.33;6.67;;;22.50;43.50;;;;;;4990867;28;20445;-78
2023/05/27 00:14:01;;;;;;;13.20;6.00;;;22.50;43.60;;;;;;4992195;28;20476;-78
2023/05/27 00:16:29;;;;;;;15.00;5.60;;;22.50;43.70;;;;;;4984618;28;20935;-78
2023/05/27 00:18:57;;;;;;;20.10;5.83;;;22.50;43.70;;;;;;4988237;28;20456;-78
2023/05/27 00:21:27;;;;;;;8.90;5.60;;;22.50;43.80;;;;;;4989044;28;20445;-78
2023/05/27 00:23:57;;;;;;;11.77;5.60;;;22.40;43.70;;;;;;4992230;28;20496;-77
2023/05/27 00:26:25;;;;;;;13.00;5.80;;;22.40;43.80;;;;;;4993155;28;20445;-77
2023/05/27 00:28:54;;;;;;;15.20;6.00;;;22.40;43.80;;;;;;4991186;28;20444;-78
2023/05/27 00:31:25;;;;;;;9.80;5.67;;;22.40;44.00;;;;;;4992610;28;20512;-78
2023/05/27 00:33:57;;;;;;;15.97;6.53;;;22.40;43.90;;;;;;4992430;28;20449;-78
2023/05/27 00:36:25;;;;;;;9.63;5.73;;;22.30;44.00;;;;;;4986676;28;20528;-78
2023/05/27 00:38:54;;;;;;;10.83;5.90;;;22.30;44.00;;;;;;4992024;28;20452;-77
2023/05/27 00:41:22;;;;;;;14.30;5.87;;;22.20;44.10;;;;;;4992237;28;20437;-78
2023/05/27 00:43:51;;;;;;;11.67;5.70;;;22.20;44.10;;;;;;4989045;28;20533;-78
2023/05/27 00:46:19;;;;;;;17.13;6.10;;;22.20;44.20;;;;;;4987139;28;20446;-77
2023/05/27 00:48:47;;;;;;;13.57;6.70;;;22.10;44.20;;;;;;4988460;28;20468;-78
2023/05/27 00:51:15;;;;;;;8.97;5.73;;;22.10;44.30;;;;;;4984817;28;20445;-78
2023/05/27 00:53:44;;;;;;;10.27;5.10;;;22.10;44.30;;;;;;4989021;28;20518;-78
2023/05/27 00:56:15;;;;;;;10.03;5.40;;;22.10;44.20;;;;;;4992155;28;20449;-78
2023/05/27 00:58:43;;;;;;;12.03;5.70;;;22.00;44.40;;;;;;4991743;28;20441;-78
2023/05/27 01:01:11;;;;;;;12.43;5.80;;;22.00;44.40;;;;;;4991910;28;20502;-78
2023/05/27 01:03:47;;;;;;;8.43;5.23;;;22.00;44.50;;;;;;4991956;28;20487;-79
2023/05/27 01:06:28;;;;;;;8.13;5.27;;;22.00;44.50;;;;;;4985287;28;20515;-78
2023/05/27 01:09:00;;;;;;;8.53;5.87;;;22.00;44.50;;;;;;4992031;28;20983;-78
2023/05/27 01:11:32;;;;;;;12.40;6.10;;;21.90;44.50;;;;;;4991518;28;20441;-78
2023/05/27 01:14:03;;;;;;;10.37;5.40;;;21.90;44.60;;;;;;4990406;28;20433;-78
2023/05/27 01:16:31;;;;;;;13.77;5.60;;;21.90;44.70;;;;;;4991600;28;20442;-78
2023/05/27 01:19:02;;;;;;;11.00;4.80;;;21.90;44.60;;;;;;4983345;28;20445;-78
2023/05/27 01:21:31;;;;;;;8.63;4.90;;;21.80;45.20;;;;;;4991707;28;20457;-78
2023/05/27 01:24:05;;;;;;;10.60;5.33;;;21.80;44.80;;;;;;4991817;28;20520;-78
2023/05/27 01:26:33;;;;;;;9.40;5.30;;;21.70;44.70;;;;;;4991485;28;20441;-77
2023/05/27 01:29:01;;;;;;;13.33;5.20;;;21.80;44.90;;;;;;4986606;28;20438;-78
2023/05/27 01:31:35;;;;;;;9.27;5.30;;;21.70;44.90;;;;;;4991603;28;20453;-78
2023/05/27 01:34:06;;;;;;;11.57;5.30;;;21.70;44.90;;;;;;4991512;28;20449;-78
2023/05/27 01:36:37;;;;;;;12.50;4.80;;;21.70;45.00;;;;;;4987251;28;20449;-77
2023/05/27 01:39:06;;;;;;;9.60;5.13;;;21.60;45.00;;;;;;4991042;28;20453;-78
2023/05/27 01:41:34;;;;;;;8.93;5.63;;;21.60;45.00;;;;;;4990735;28;20938;-78
2023/05/27 01:44:03;;;;;;;9.27;5.17;;;21.60;45.10;;;;;;4991101;28;20473;-78
2023/05/27 01:46:31;;;;;;;7.00;4.90;;;21.60;45.20;;;;;;4991353;28;20435;-78
2023/05/27 01:48:59;;;;;;;9.97;5.07;;;21.50;45.10;;;;;;4991146;28;20453;-78
2023/05/27 01:51:27;;;;;;;9.23;5.03;;;21.50;45.20;;;;;;4990555;28;20450;-78
2023/05/27 01:53:55;;;;;;;9.53;5.03;;;21.50;45.40;;;;;;4991383;28;20441;-78
2023/05/27 01:56:25;;;;;;;9.70;5.37;;;21.40;45.20;;;;;;4990237;28;20481;-78
2023/05/27 01:58:53;;;;;;;32.47;18.37;;;21.50;45.40;;;;;;4987923;28;20450;-79
2023/05/27 02:01:22;;;;;;;25.03;15.40;;;21.50;45.40;;;;;;4995742;28;20458;-78
2023/05/27 02:03:51;;;;;;;29.77;17.40;;;21.40;45.30;;;;;;4995726;28;20539;-78
2023/05/27 02:06:19;;;;;;;34.23;20.27;;;21.40;45.40;;;;;;4995842;28;20453;-78
2023/05/27 02:08:48;;;;;;;33.70;21.63;;;21.30;45.30;;;;;;4996283;28;20481;-78
2023/05/27 02:11:16;;;;;;;36.40;23.57;;;21.40;45.50;;;;;;4995292;28;20441;-79
2023/05/27 02:13:45;;;;;;;36.33;22.53;;;21.30;45.40;;;;;;4995672;28;20508;-78
2023/05/27 02:16:14;;;;;;;40.33;23.90;;;21.30;45.50;;;;;;4990987;28;20488;-79
2023/05/27 02:18:42;;;;;;;35.00;23.53;;;21.30;45.50;;;;;;4996173;28;20446;-78
2023/05/27 02:21:10;;;;;;;37.43;23.60;;;21.30;45.70;;;;;;4996103;28;20496;-79
2023/05/27 02:23:38;;;;;;;34.60;22.37;;;21.20;45.60;;;;;;4997768;28;21020;-79
2023/05/27 02:26:07;;;;;;;38.40;23.70;;;21.20;45.60;;;;;;5000097;28;20489;-78
2023/05/27 02:28:35;;;;;;;35.60;22.27;;;21.20;45.60;;;;;;4994591;28;20448;-78
2023/05/27 02:31:05;;;;;;;35.50;22.40;;;21.20;45.80;;;;;;4999212;28;20441;-78
2023/05/27 02:33:33;;;;;;;35.43;21.60;;;21.10;45.70;;;;;;4998541;28;20445;-78
2023/05/27 02:36:01;;;;;;;41.00;23.80;;;21.10;45.80;;;;;;4996411;28;20469;-78
2023/05/27 02:38:29;;;;;;;37.33;23.27;;;21.10;45.80;;;;;;4998505;28;20516;-78
2023/05/27 02:40:57;;;;;;;34.43;20.93;;;21.10;45.80;;;;;;4998414;28;20476;-78
2023/05/27 02:43:25;;;;;;;32.63;21.13;;;21.10;45.80;;;;;;4997712;28;20958;-78
2023/05/27 02:45:53;;;;;;;31.10;19.70;;;21.10;45.90;;;;;;4994359;28;20553;-78
2023/05/27 02:48:23;;;;;;;29.43;19.57;;;21.10;45.80;;;;;;4994421;28;20472;-78
2023/05/27 02:50:51;;;;;;;32.47;20.27;;;21.00;45.90;;;;;;4994157;28;20449;-78
2023/05/27 02:53:19;;;;;;;31.17;19.30;;;21.00;45.70;;;;;;4990427;28;20484;-78
2023/05/27 02:55:47;;;;;;;34.00;20.10;;;21.00;46.00;;;;;;4982765;28;20460;-78
2023/05/27 02:58:16;;;;;;;32.30;19.03;;;20.90;46.00;;;;;;4993994;28;20516;-78
2023/05/27 03:00:44;;;;;;;31.43;20.27;;;21.00;46.20;;;;;;4994253;28;20981;-78
2023/05/27 03:03:12;;;;;;;28.50;17.43;;;20.90;46.10;;;;;;4994217;28;21028;-78
2023/05/27 03:05:41;;;;;;;31.47;18.20;;;20.90;46.10;;;;;;4987925;28;20485;-78
2023/05/27 03:08:09;;;;;;;29.53;16.83;;;20.90;46.10;;;;;;4993413;28;20563;-78
2023/05/27 03:10:37;;;;;;;28.30;16.70;;;20.90;46.20;;;;;;4993784;28;20449;-77
2023/05/27 03:13:05;;;;;;;26.63;16.90;;;20.80;46.70;;;;;;4992933;28;20544;-78
2023/05/27 03:15:35;;;;;;;27.90;16.40;;;20.80;46.20;;;;;;4988532;28;20466;-78
2023/05/27 03:18:03;;;;;;;23.67;14.70;;;20.80;46.30;;;;;;4992038;28;20449;-78
2023/05/27 03:20:31;;;;;;;27.53;15.40;;;20.80;46.20;;;;;;4993618;28;20453;-78
2023/05/27 03:23:01;;;;;;;25.27;15.80;;;20.80;46.40;;;;;;4993533;28;20480;-78
2023/05/27 03:25:30;;;;;;;23.20;14.17;;;20.80;46.50;;;;;;4985505;28;20555;-78
2023/05/27 03:27:59;;;;;;;22.77;14.90;;;20.70;46.30;;;;;;4993407;28;20445;-78
2023/05/27 03:30:27;;;;;;;22.03;13.67;;;20.80;46.30;;;;;;4993392;28;20454;-77
2023/05/27 03:32:55;;;;;;;20.60;13.83;;;20.80;46.40;;;;;;4993554;28;20536;-78
2023/05/27 03:35:23;;;;;;;23.23;12.63;;;20.70;46.40;;;;;;4989059;28;20569;-78
2023/05/27 03:37:51;;;;;;;23.47;14.03;;;20.80;46.50;;;;;;4990261;28;20499;-78
2023/05/27 03:40:20;;;;;;;18.60;12.43;;;20.80;46.50;;;;;;4992907;28;20453;-78
2023/05/27 03:42:49;;;;;;;19.73;12.53;;;20.70;46.40;;;;;;4993417;28;20473;-77
2023/05/27 03:45:17;;;;;;;16.73;11.30;;;20.70;46.40;;;;;;4989110;28;20469;-77
2023/05/27 03:47:45;;;;;;;15.93;10.77;;;20.70;46.50;;;;;;4987049;28;20453;-78
2023/05/27 03:50:13;;;;;;;18.83;11.90;;;20.70;46.40;;;;;;4993016;28;20446;-79
2023/05/27 03:52:41;;;;;;;18.20;11.40;;;20.70;46.40;;;;;;4993366;28;20457;-78
2023/05/27 03:55:10;;;;;;;23.23;12.27;;;20.70;46.40;;;;;;4992767;28;20508;-78
2023/05/27 03:57:39;;;;;;;16.03;10.73;;;20.70;46.50;;;;;;4993127;28;20903;-78
2023/05/27 04:00:11;;;;;;;16.47;10.60;;;20.70;46.50;;;;;;4992932;28;20461;-78
2023/05/27 04:02:39;;;;;;;15.80;10.20;;;20.70;46.60;;;;;;4992858;28;20441;-78
2023/05/27 04:05:08;;;;;;;17.33;10.93;;;20.60;46.40;;;;;;4992914;28;20481;-78
2023/05/27 04:07:36;;;;;;;16.27;10.60;;;20.60;46.60;;;;;;4992140;28;20533;-78
2023/05/27 04:10:04;;;;;;;17.90;10.77;;;20.60;46.60;;;;;;4993377;28;20445;-77
2023/05/27 04:12:32;;;;;;;15.90;10.07;;;20.60;46.60;;;;;;4989381;28;20525;-78
2023/05/27 04:15:02;;;;;;;17.23;10.07;;;20.60;46.80;;;;;;4995396;28;20472;-79
2023/05/27 04:17:30;;;;;;;15.10;10.00;;;20.60;46.70;;;;;;4995029;28;20469;-79
2023/05/27 04:19:59;;;;;;;13.73;9.27;;;20.60;46.80;;;;;;4996067;28;20453;-78
2023/05/27 04:22:27;;;;;;;12.00;8.23;;;20.60;46.80;;;;;;4995918;28;20477;-79
2023/05/27 04:24:55;;;;;;;13.57;9.10;;;20.60;46.70;;;;;;4996364;28;20504;-78
2023/05/27 04:27:24;;;;;;;15.53;9.50;;;20.60;46.70;;;;;;4997055;28;20453;-79
2023/05/27 04:29:53;;;;;;;14.20;8.20;;;20.60;46.80;;;;;;4996833;28;20938;-79
2023/05/27 04:32:22;;;;;;;11.50;7.80;;;20.60;46.70;;;;;;4994204;28;20540;-78
2023/05/27 04:34:51;;;;;;;13.20;8.30;;;20.60;46.80;;;;;;4991713;28;20473;-78
2023/05/27 04:37:19;;;;;;;10.27;7.50;;;20.50;46.70;;;;;;4990233;28;20460;-78
2023/05/27 04:39:48;;;;;;;14.17;8.40;;;20.50;46.80;;;;;;4990892;28;20445;-78
2023/05/27 04:42:16;;;;;;;15.17;8.13;;;20.60;46.70;;;;;;4996932;28;20508;-78
2023/05/27 04:44:44;;;;;;;15.67;8.40;;;20.60;47.40;;;;;;4997033;28;20465;-78
2023/05/27 04:47:13;;;;;;;10.33;7.57;;;20.60;46.80;;;;;;4994939;28;20481;-79
2023/05/27 04:49:43;;;;;;;13.43;7.70;;;20.60;47.50;;;;;;4997040;28;20484;-79
2023/05/27 04:52:11;;;;;;;11.20;7.23;;;20.60;46.70;;;;;;4996883;28;20477;-79
2023/05/27 04:54:40;;;;;;;9.50;7.07;;;20.70;46.80;;;;;;4992458;28;20500;-78
2023/05/27 04:57:08;;;;;;;10.03;6.63;;;20.70;46.70;;;;;;4997423;28;20512;-78
2023/05/27 04:59:58;;;;;;;12.47;7.20;;;20.60;46.80;;;;;;4997632;28;20449;-79
2023/05/27 05:02:34;;;;;;;12.73;7.53;;;20.70;47.00;;;;;;4997271;28;20477;-78
2023/05/27 05:05:04;;;;;;;10.70;7.07;;;20.70;46.80;;;;;;4996599;28;20460;-79
2023/05/27 05:07:33;;;;;;;10.40;6.80;;;20.70;46.70;;;;;;4992879;28;20474;-77
2023/05/27 05:10:01;;;;;;;12.07;7.30;;;20.70;46.80;;;;;;4991614;28;20453;-79
2023/05/27 05:12:29;;;;;;;11.80;6.00;;;20.70;46.70;;;;;;4989790;28;20449;-78
2023/05/27 05:14:58;;;;;;;10.53;6.70;;;20.70;46.70;;;;;;4996354;28;20524;-79
2023/05/27 05:17:26;;;;;;;12.13;6.70;;;20.70;47.00;;;;;;4996348;28;20445;-79
2023/05/27 05:19:54;;;;;;;7.43;5.77;;;20.70;46.60;;;;;;4989352;28;20452;-78
2023/05/27 05:22:25;;;;;;;9.70;5.60;;;20.70;46.60;;;;;;4991798;28;20468;-79
2023/05/27 05:24:53;;;;;;;10.60;6.67;;;20.70;46.70;;;;;;4996925;28;20507;-78
2023/05/27 05:27:21;;;;;;;8.20;5.70;;;20.80;46.70;;;;;;4996082;28;20577;-79
2023/05/27 05:29:50;;;;;;;7.50;5.77;;;20.80;46.70;;;;;;4996739;28;20540;-78
2023/05/27 05:32:18;;;;;;;11.17;6.13;;;20.80;46.70;;;;;;4995982;28;20449;-78
2023/05/27 05:34:46;;;;;;;7.70;5.13;;;20.80;46.60;;;;;;4991512;28;20564;-79
2023/05/27 05:37:14;;;;;;;7.30;5.53;;;20.80;46.60;;;;;;4996032;28;20441;-78
2023/05/27 05:39:43;;;;;;;8.47;5.43;;;20.80;46.50;;;;;;4985207;28;20454;-77
2023/05/27 05:42:12;;;;;;;8.77;5.40;;;20.80;46.50;;;;;;4995301;28;20442;-78
2023/05/27 05:44:40;;;;;;;6.60;5.53;;;20.80;46.50;;;;;;4995024;28;20469;-78
2023/05/27 05:47:08;;;;;;;9.80;6.20;;;20.90;46.60;;;;;;4995963;28;20548;-78
2023/05/27 05:49:36;;;;;;;9.33;5.63;;;20.90;46.60;;;;;;4996191;28;20532;-78
2023/05/27 05:52:04;;;;;;;6.33;4.90;;;20.90;46.60;;;;;;4995586;28;20532;-79
2023/05/27 05:54:32;;;;;;;7.13;5.30;;;20.90;46.50;;;;;;4992594;28;20467;-78
2023/05/27 05:57:02;;;;;;;6.80;4.70;;;20.90;46.60;;;;;;4992614;28;20453;-78
2023/05/27 05:59:30;;;;;;;8.00;5.30;;;20.90;46.60;;;;;;4999378;28;20448;-78
2023/05/27 06:01:58;;;;;;;6.57;4.63;;;20.90;46.60;;;;;;5000326;28;20449;-78
2023/05/27 06:04:26;;;;;;;7.73;4.50;;;21.00;46.70;;;;;;5000247;28;20511;-79
2023/05/27 06:06:54;;;;;;;8.67;4.60;;;21.00;46.60;;;;;;5000548;28;20551;-79
2023/05/27 06:09:24;;;;;;;7.03;5.07;;;21.00;46.60;;;;;;5000127;28;20433;-78
2023/05/27 06:11:52;;;;;;;7.20;4.80;;;21.10;46.40;;;;;;4999968;28;20437;-79
2023/05/27 06:14:23;;;;;;;8.43;5.00;;;21.10;46.50;;;;;;4998631;28;20535;-79
2023/05/27 06:16:50;;;;;;;6.20;4.20;;;21.00;46.50;;;;;;5000267;28;20469;-78
2023/05/27 06:19:18;;;;;;;6.50;4.63;;;21.10;46.50;;;;;;5000844;28;20481;-78
2023/05/27 06:21:46;;;;;;;6.77;4.57;;;21.10;46.60;;;;;;5000501;28;20437;-78
2023/05/27 06:24:15;;;;;;;4.73;4.17;;;21.20;46.60;;;;;;4994935;28;20890;-78
2023/05/27 06:26:42;;;;;;;6.60;4.20;;;21.20;46.50;;;;;;5000026;28;20573;-78
2023/05/27 06:29:11;;;;;;;5.50;4.30;;;21.20;46.50;;;;;;4999932;28;20479;-79
2023/05/27 06:31:40;;;;;;;5.90;4.10;;;21.30;46.40;;;;;;5000394;28;20503;-79
2023/05/27 06:34:08;;;;;;;6.63;3.90;;;21.30;46.40;;;;;;4998687;28;20541;-78
2023/05/27 06:36:36;;;;;;;5.97;4.07;;;21.30;46.60;;;;;;4992211;28;21025;-78
2023/05/27 06:39:04;;;;;;;5.53;4.00;;;21.30;46.40;;;;;;4999606;28;20488;-79
2023/05/27 06:41:32;;;;;;;5.50;4.17;;;21.30;46.60;;;;;;4999981;28;20468;-79
2023/05/27 06:44:00;;;;;;;7.10;4.03;;;21.40;46.50;;;;;;5000599;28;20446;-79
2023/05/27 06:46:28;;;;;;;4.80;3.63;;;21.40;46.30;;;;;;4988410;28;20549;-78
2023/05/27 06:48:57;;;;;;;4.93;3.97;;;21.50;46.40;;;;;;5000391;28;20472;-78
2023/05/27 06:51:26;;;;;;;6.63;4.17;;;21.50;46.30;;;;;;4999594;28;20449;-78
2023/05/27 06:53:55;;;;;;;5.97;4.23;;;21.50;46.40;;;;;;4999702;28;20476;-78
2023/05/27 06:56:23;;;;;;;4.23;3.73;;;21.60;46.30;;;;;;4989999;28;20446;-78
2023/05/27 06:58:51;;;;;;;5.10;4.43;;;21.70;46.30;;;;;;4995835;28;20525;-78
2023/05/27 07:01:19;;;;;;;6.07;3.90;;;21.80;46.20;;;;;;4997392;28;20449;-78
2023/05/27 07:03:47;;;;;;;3.93;3.53;;;21.80;46.10;;;;;;4998182;28;20513;-78
2023/05/27 07:06:17;;;;;;;4.80;3.67;;;21.90;46.10;;;;;;4998475;28;20483;-79
2023/05/27 07:08:45;;;;;;;4.20;3.80;;;22.00;46.10;;;;;;4999001;28;20478;-79
2023/05/27 07:11:13;;;;;;;5.50;3.63;;;22.00;46.00;;;;;;4998711;28;20446;-78
2023/05/27 07:13:41;;;;;;;4.70;4.10;;;22.10;46.00;;;;;;5000361;28;20446;-79
2023/05/27 07:16:09;;;;;;;5.93;3.70;;;22.20;46.00;;;;;;4999696;28;20486;-79
2023/05/27 07:18:37;;;;;;;4.43;3.30;;;22.20;46.00;;;;;;5000570;28;20468;-78
2023/05/27 07:21:06;;;;;;;4.47;3.23;;;22.30;46.00;;;;;;4998794;28;20452;-79
2023/05/27 07:23:35;;;;;;;4.63;3.63;;;22.40;46.00;;;;;;4998332;28;20480;-79
2023/05/27 07:26:04;;;;;;;6.93;3.60;;;22.50;46.10;;;;;;4998227;28;20474;-79
2023/05/27 07:28:32;;;;;;;3.80;3.10;;;22.50;45.90;;;;;;4995294;28;20492;-78
2023/05/27 07:31:00;;;;;;;4.90;3.83;;;22.60;45.90;;;;;;4994006;28;20466;-80
2023/05/27 07:33:28;;;;;;;7.23;3.53;;;22.70;45.90;;;;;;4997400;28;20453;-78
2023/05/27 07:35:56;;;;;;;4.20;3.80;;;22.70;45.70;;;;;;4987744;28;20477;-78
2023/05/27 07:38:24;;;;;;;4.30;3.10;;;22.80;45.70;;;;;;4991023;28;20501;-77
2023/05/27 07:40:54;;;;;;;3.60;3.23;;;22.90;45.80;;;;;;4994092;28;20492;-78
2023/05/27 07:43:22;;;;;;;3.73;3.43;;;23.00;45.90;;;;;;4992186;28;20537;-78
2023/05/27 07:45:50;;;;;;;4.00;3.53;;;23.10;45.80;;;;;;4994661;28;20553;-78
2023/05/27 07:48:18;;;;;;;7.20;3.30;;;23.20;45.80;;;;;;4993978;28;20519;-78
2023/05/27 07:50:46;;;;;;;5.40;3.60;;;23.30;45.80;;;;;;4994632;28;20469;-78
2023/05/27 07:53:14;;;;;;;9.33;3.40;;;23.40;45.80;;;;;;4996819;28;20449;-79
2023/05/27 07:55:43;;;;;;;4.60;3.33;;;23.50;45.60;;;;;;4983298;28;20531;-78
2023/05/27 07:58:12;;;;;;;4.30;3.30;;;23.60;45.70;;;;;;4991463;28;20492;-78
2023/05/27 08:00:40;;;;;;;5.00;2.70;;;23.70;45.60;;;;;;4992994;28;20453;-78
2023/05/27 08:03:08;;;;;;;3.43;3.13;;;23.80;45.50;;;;;;4984985;28;20613;-77
2023/05/27 08:05:36;;;;;;;4.13;3.70;;;23.90;45.40;;;;;;4996304;28;20484;-79
2023/05/27 08:08:05;;;;;;;3.40;3.13;;;24.10;45.30;;;;;;4999076;28;20490;-80
2023/05/27 08:10:33;;;;;;;3.97;3.27;;;24.20;45.10;;;;;;4990056;28;20461;-79
2023/05/27 08:13:01;;;;;;;4.37;3.27;;;24.20;44.90;;;;;;4995557;28;21016;-79
2023/05/27 08:15:31;;;;;;;3.77;3.47;;;24.20;45.00;;;;;;4996706;28;20509;-78
2023/05/27 08:18:00;;;;;;;6.00;3.57;;;24.40;45.10;;;;;;4993486;28;20500;-78
2023/05/27 08:20:28;;;;;;;4.50;3.63;;;24.50;45.00;;;;;;4993348;28;20509;-78
2023/05/27 08:22:57;;;;;;;6.17;4.30;;;24.60;45.00;;;;;;4993405;28;20450;-79
2023/05/27 08:25:25;;;;;;;4.50;3.50;;;24.80;44.90;;;;;;4995791;28;20500;-78
2023/05/27 08:27:57;;;;;;;6.40;4.23;;;24.90;44.70;;;;;;4994277;28;20480;-80
2023/05/27 08:30:26;;;;;;;5.37;4.00;;;25.00;44.60;;;;;;4994354;28;20449;-79
2023/05/27 08:32:56;;;;;;;4.40;3.70;;;25.20;44.50;;;;;;4992326;28;20445;-78
2023/05/27 08:35:26;;;;;;;6.30;3.90;;;25.40;44.40;;;;;;4987633;28;20483;-78
2023/05/27 08:37:54;;;;;;;5.40;3.50;;;25.50;44.20;;;;;;4992879;28;20527;-78
2023/05/27 08:40:25;;;;;;;4.77;3.53;;;25.70;44.10;;;;;;4991648;28;20462;-78
2023/05/27 08:42:55;;;;;;;7.03;4.10;;;25.80;43.90;;;;;;4991897;28;20449;-78
2023/05/27 08:45:23;;;;;;;4.43;3.70;;;26.00;44.00;;;;;;4991884;28;20458;-78
2023/05/27 08:47:52;;;;;;;5.90;4.03;;;26.10;43.70;;;;;;4983805;28;20830;-78
2023/05/27 08:50:22;;;;;;;7.10;4.80;;;26.10;43.60;;;;;;4994477;28;20441;-81
2023/05/27 08:52:53;;;;;;;7.20;3.60;;;26.20;43.50;;;;;;4996877;28;20453;-83
2023/05/27 08:55:21;;;;;;;4.87;3.70;;;26.20;43.50;;;;;;4996148;28;20453;-81
2023/05/27 08:57:52;;;;;;;5.73;3.90;;;26.30;43.60;;;;;;4996518;28;20445;-81
2023/05/27 09:00:20;;;;;;;6.40;4.30;;;26.50;43.60;;;;;;4997039;28;20434;-82
2023/05/27 09:02:48;;;;;;;6.63;3.70;;;26.60;43.50;;;;;;4996423;28;20456;-82
2023/05/27 09:05:17;;;;;;;5.97;3.90;;;26.80;43.50;;;;;;4996599;28;20469;-82
2023/05/27 09:07:47;;;;;;;4.70;3.70;;;27.00;43.30;;;;;;4996253;28;20469;-82
2023/05/27 09:10:15;;;;;;;5.90;4.30;;;27.10;43.10;;;;;;4995465;28;20456;-82
2023/05/27 09:12:43;;;;;;;5.13;3.90;;;27.30;43.00;;;;;;4995810;28;20424;-81
2023/05/27 09:15:12;;;;;;;6.03;3.80;;;27.50;42.80;;;;;;4993304;28;20466;-81
2023/05/27 09:17:41;;;;;;;5.50;4.30;;;27.60;42.70;;;;;;4986883;28;20452;-83
2023/05/27 09:20:10;;;;;;;6.43;3.63;;;27.80;42.60;;;;;;4996717;28;20426;-83
2023/05/27 09:22:39;;;;;;;5.37;4.10;;;27.90;42.40;;;;;;4989127;28;20416;-82
2023/05/27 09:25:10;;;;;;;4.60;3.80;;;28.00;42.30;;;;;;4997280;28;20443;-81
2023/05/27 09:27:43;;;;;;;4.27;3.60;;;28.20;42.30;;;;;;4989748;28;20419;-83
2023/05/27 09:30:12;;;;;;;5.27;4.00;;;28.40;42.10;;;;;;4996796;28;20431;-83
2023/05/27 09:32:40;;;;;;;4.73;3.73;;;28.60;42.10;;;;;;4988913;28;20446;-82
2023/05/27 09:35:09;;;;;;;4.77;3.53;;;28.70;41.90;;;;;;4993593;28;20484;-83
2023/05/27 09:37:39;;;;;;;4.77;3.70;;;28.90;41.80;;;;;;4996561;28;20420;-83
2023/05/27 09:40:09;;;;;;;6.43;4.07;;;29.00;41.70;;;;;;4996137;28;20468;-83
2023/05/27 09:42:42;;;;;;;5.27;3.63;;;29.20;41.50;;;;;;4991100;28;20458;-83
2023/05/27 09:45:13;;;;;;;6.90;4.30;;;29.30;41.20;;;;;;4984445;28;20465;-83
2023/05/27 09:47:42;;;;;;;3.63;3.33;;;29.50;41.30;;;;;;4987851;28;20447;-83
2023/05/27 09:50:11;;;;;;;5.50;4.17;;;29.60;41.10;;;;;;4995235;28;20452;-83
2023/05/27 09:52:40;;;;;;;4.03;3.40;;;29.80;41.00;;;;;;4994879;28;20451;-81
2023/05/27 09:55:17;;;;;;;5.33;3.20;;;30.00;40.90;;;;;;4992390;28;20444;-83
2023/05/27 09:57:45;;;;;;;5.23;3.73;;;30.10;40.80;;;;;;4996982;28;20420;-83
2023/05/27 10:00:15;;;;;;;4.70;3.30;;;30.30;40.70;;;;;;4994993;28;20483;-82
2023/05/27 10:02:45;;;;;;;4.10;3.50;;;30.50;40.60;;;;;;4992232;28;20441;-82
2023/05/27 10:05:15;;;;;;;4.60;3.50;;;30.60;40.30;;;;;;4995486;28;20443;-83
2023/05/27 10:07:44;;;;;;;3.80;3.10;;;30.80;40.20;;;;;;4992704;28;20430;-82
2023/05/27 10:10:35;;;;;;;4.27;3.87;;;30.90;40.00;;;;;;4993788;28;20452;-82
2023/05/27 10:13:03;;;;;;;3.80;3.40;;;31.20;39.80;;;;;;4990470;28;21008;-84
2023/05/27 10:15:32;;;;;;;3.20;3.00;;;31.30;39.70;;;;;;4996511;28;20465;-84
2023/05/27 10:18:01;;;;;;;4.80;3.27;;;31.50;39.50;;;;;;4984637;28;21005;-83
2023/05/27 10:20:30;;;;;;;4.30;3.67;;;31.70;39.40;;;;;;4995553;28;20445;-82
2023/05/27 10:22:58;;;;;;;7.07;3.67;;;31.80;39.20;;;;;;4996258;28;20429;-83
2023/05/27 10:25:37;;;;;;;4.63;3.30;;;32.00;39.00;;;;;;4994955;28;20457;-82
2023/05/27 10:28:05;;;;;;;5.37;3.60;;;32.30;38.90;;;;;;4993684;28;20523;-82
2023/05/27 10:30:44;;;;;;;5.60;3.70;;;32.40;38.60;;;;;;5000740;28;20480;-84
2023/05/27 10:33:12;;;;;;;6.07;3.37;;;32.60;38.50;;;;;;4996702;28;20773;-84
2023/05/27 10:35:41;;;;;;;3.50;3.20;;;32.70;38.30;;;;;;4997089;28;20477;-82
2023/05/27 10:38:19;;;;;;;4.87;3.57;;;32.90;38.40;;;;;;4988588;28;20584;-80
2023/05/27 10:40:59;;;;;;;3.37;2.97;;;33.00;38.10;;;;;;4984806;28;20494;-79
2023/05/27 10:43:28;;;;;;;9.97;3.70;;;33.20;38.20;;;;;;4994013;28;20453;-80
2023/05/27 10:46:03;;;;;;;5.57;3.00;;;33.40;38.00;;;;;;4998754;28;20496;-81
2023/05/27 10:48:32;;;;;;;4.60;2.97;;;33.50;37.80;;;;;;5000956;28;20449;-83
2023/05/27 10:51:00;;;;;;;3.47;3.10;;;33.70;37.80;;;;;;4999730;28;20528;-82
2023/05/27 10:53:28;;;;;;;6.20;3.40;;;33.90;37.60;;;;;;4992792;28;20424;-81
2023/05/27 10:55:59;;;;;;;3.60;3.30;;;34.10;37.60;;;;;;4995241;28;20503;-81
2023/05/27 10:58:27;;;;;;;4.30;3.53;;;34.20;37.40;;;;;;4999621;28;20476;-81
2023/05/27 11:00:56;;;;;;;3.30;3.00;;;34.40;37.40;;;;;;4999951;28;20464;-81
2023/05/27 11:03:26;;;;;;;4.17;3.60;;;34.50;37.30;;;;;;4998125;28;20449;-81
2023/05/27 11:06:00;;;;;;;4.17;3.33;;;34.70;37.10;;;;;;4993076;28;20469;-82
2023/05/27 11:08:28;;;;;;;5.50;3.13;;;34.90;36.80;;;;;;4995003;28;20468;-81
2023/05/27 11:11:01;;;;;;;5.97;3.10;;;35.00;36.70;;;;;;4999522;28;20492;-81
2023/05/27 11:13:33;;;;;;;3.70;3.00;;;35.10;36.50;;;;;;4999966;28;20453;-81
2023/05/27 11:16:02;;;;;;;4.80;3.30;;;35.40;36.30;;;;;;4998690;28;20464;-80
2023/05/27 11:18:37;;;;;;;3.10;2.80;;;35.90;36.00;;;;;;5000963;28;20456;-82
2023/05/27 11:21:05;;;;;;;2.90;2.53;;;36.60;35.10;;;;;;5000293;28;20441;-82
2023/05/27 11:23:37;;;;;;;3.50;2.57;;;37.20;34.20;;;;;;5000012;28;20520;-82
2023/05/27 11:26:13;;;;;;;3.90;2.73;;;37.90;33.50;;;;;;4989603;28;20474;-83
2023/05/27 11:28:48;;;;;;;2.67;2.47;;;38.50;32.70;;;;;;4991642;28;20449;-82
2023/05/27 11:31:17;;;;;;;2.80;2.20;;;39.00;31.60;;;;;;5000340;28;20449;-84
2023/05/27 11:33:46;;;;;;;3.07;2.57;;;39.60;31.30;;;;;;4999542;28;20634;-82
2023/05/27 11:36:16;;;;;;;2.47;2.27;;;40.00;30.30;;;;;;4998916;28;20463;-84
2023/05/27 11:38:49;;;;;;;2.53;2.43;;;40.40;29.90;;;;;;4996444;28;20531;-82
2023/05/27 11:41:20;;;;;;;2.87;2.67;;;40.70;29.40;;;;;;4999531;28;20445;-82
2023/05/27 11:43:50;;;;;;;2.53;2.33;;;41.00;29.00;;;;;;4989861;28;20508;-83
2023/05/27 11:46:18;;;;;;;2.87;2.70;;;41.30;28.90;;;;;;4992094;28;20540;-82
2023/05/27 11:48:47;;;;;;;2.50;2.30;;;41.50;28.70;;;;;;4998680;28;20445;-82
2023/05/27 11:51:16;;;;;;;2.50;2.40;;;41.70;28.40;;;;;;4999762;28;20517;-82
2023/05/27 11:53:46;;;;;;;2.50;2.30;;;42.00;28.20;;;;;;4993585;28;20441;-84
2023/05/27 11:56:15;;;;;;;2.90;2.50;;;42.20;28.00;;;;;;4994355;28;20444;-82
2023/05/27 11:58:44;;;;;;;2.47;2.30;;;42.40;27.80;;;;;;4992722;28;20451;-82
2023/05/27 12:01:13;;;;;;;2.50;2.33;;;42.60;27.50;;;;;;4999334;28;20520;-81
2023/05/27 12:03:41;;;;;;;2.10;2.00;;;42.90;27.30;;;;;;4998694;28;20477;-81
2023/05/27 12:06:10;;;;;;;1.90;1.80;;;43.20;27.10;;;;;;5000122;28;20980;-81
2023/05/27 12:08:39;;;;;;;2.40;2.30;;;43.30;27.00;;;;;;5000486;28;20521;-81
2023/05/27 12:11:07;;;;;;;2.60;2.23;;;43.40;26.80;;;;;;5000575;28;20480;-81
2023/05/27 12:13:35;;;;;;;2.00;1.90;;;43.50;26.70;;;;;;4996744;28;20484;-81
2023/05/27 12:16:06;;;;;;;2.67;2.47;;;43.50;26.40;;;;;;5001940;28;20519;-82
2023/05/27 12:18:33;;;;;;;2.50;2.40;;;43.70;26.30;;;;;;4997747;28;20438;-82
2023/05/27 12:21:01;;;;;;;2.70;2.60;;;43.80;26.40;;;;;;5000327;28;20436;-83
2023/05/27 12:23:29;;;;;;;2.60;2.40;;;43.80;26.40;;;;;;4999097;28;20924;-82
2023/05/27 12:25:57;;;;;;;2.23;2.13;;;43.90;26.10;;;;;;5000425;28;20496;-82
2023/05/27 12:28:26;;;;;;;3.00;2.77;;;44.00;26.10;;;;;;5000959;28;20540;-82
2023/05/27 12:30:54;;;;;;;2.50;2.30;;;44.10;26.10;;;;;;4993410;28;20541;-83
2023/05/27 12:33:24;;;;;;;3.07;2.80;;;44.10;26.10;;;;;;5002264;28;20445;-82
2023/05/27 12:35:52;;;;;;;2.77;2.57;;;44.00;26.10;;;;;;5002576;28;20472;-81
2023/05/27 12:38:20;;;;;;;2.93;2.60;;;43.70;26.30;;;;;;4993993;28;20457;-81
2023/05/27 12:40:49;;;;;;;2.73;2.53;;;43.30;26.50;;;;;;4998378;28;20433;-82
2023/05/27 12:43:18;;;;;;;2.60;2.40;;;43.00;26.70;;;;;;4998264;28;20453;-81
2023/05/27 12:45:45;;;;;;;2.80;2.60;;;42.70;27.00;;;;;;5000537;28;20484;-81
2023/05/27 12:48:14;;;;;;;2.90;2.70;;;42.40;27.40;;;;;;4998330;28;20468;-81
2023/05/27 12:50:43;;;;;;;2.80;2.57;;;42.20;27.60;;;;;;4999711;28;20503;-81